createdAt,value
2022-12-29T00:00:15.293Z,3.47
2022-12-29T00:02:43.318Z,1.50
2022-12-29T00:05:11.376Z,2.23
2022-12-29T00:07:39.242Z,2.00
2022-12-29T00:10:09.328Z,3.70
2022-12-29T00:12:54.397Z,2.97
2022-12-29T00:15:40.286Z,2.20
2022-12-29T00:18:08.749Z,2.03
2022-12-29T00:20:54.707Z,2.00
2022-12-29T00:23:40.573Z,2.05
2022-12-29T00:26:32.672Z,3.83
2022-12-29T00:29:18.476Z,1.52
2022-12-29T00:32:03.683Z,2.88
2022-12-29T00:34:48.870Z,1.25
2022-12-29T00:37:16.622Z,1.55
2022-12-29T00:40:02.188Z,2.65
2022-12-29T00:43:03.350Z,1.95
2022-12-29T00:45:30.966Z,3.97
2022-12-29T00:47:58.557Z,1.70
2022-12-29T00:50:25.198Z,1.35
2022-12-29T00:52:52.849Z,1.17
2022-12-29T00:55:20.454Z,1.92
2022-12-29T00:57:49.433Z,1.40
2022-12-29T01:00:17.262Z,1.63
2022-12-29T01:02:44.978Z,0.95
2022-12-29T01:05:12.658Z,1.80
2022-12-29T01:07:40.279Z,1.55
2022-12-29T01:10:11.552Z,1.20
2022-12-29T01:12:45.830Z,1.60
2022-12-29T01:15:16.687Z,0.95
2022-12-29T01:17:44.638Z,1.70
2022-12-29T01:20:13.224Z,1.15
2022-12-29T01:22:43.373Z,1.70
2022-12-29T01:25:11.095Z,2.00
2022-12-29T01:27:39.772Z,1.60
2022-12-29T01:30:08.497Z,2.65
2022-12-29T01:32:37.480Z,1.17
2022-12-29T01:35:05.843Z,1.00
2022-12-29T01:37:36.019Z,2.28
2022-12-29T01:40:04.164Z,1.65
2022-12-29T01:42:33.516Z,1.30
2022-12-29T01:45:04.540Z,1.00
2022-12-29T01:47:38.524Z,1.30
2022-12-29T01:50:11.493Z,1.00
2022-12-29T01:52:42.915Z,1.10
2022-12-29T01:55:12.982Z,1.30
2022-12-29T01:57:45.329Z,0.90
2022-12-29T02:00:15.149Z,4.10
2022-12-29T02:02:48.489Z,1.00
2022-12-29T02:05:21.859Z,1.02
2022-12-29T02:07:50.537Z,1.05
2022-12-29T02:10:21.091Z,1.10
2022-12-29T02:12:49.786Z,1.00
2022-12-29T02:15:18.553Z,0.90
2022-12-29T02:18:20.563Z,1.63
2022-12-29T02:21:27.811Z,3.00
2022-12-29T02:24:18.320Z,1.08
2022-12-29T02:27:13.038Z,1.20
2022-12-29T02:30:07.287Z,1.00
2022-12-29T02:32:43.921Z,2.30
2022-12-29T02:35:22.121Z,0.90
2022-12-29T02:38:00.448Z,1.13
2022-12-29T02:40:38.636Z,0.90
2022-12-29T02:43:16.686Z,1.40
2022-12-29T02:45:53.900Z,1.53
2022-12-29T02:48:29.746Z,1.00
2022-12-29T02:51:02.823Z,1.97
2022-12-29T02:53:51.589Z,1.60
2022-12-29T02:56:20.548Z,4.07
2022-12-29T02:58:48.248Z,0.93
2022-12-29T03:01:31.641Z,0.97
2022-12-29T03:04:30.689Z,1.33
2022-12-29T03:07:06.236Z,2.07
2022-12-29T03:09:43.392Z,1.20
2022-12-29T03:12:23.254Z,1.87
2022-12-29T03:15:17.464Z,2.50
2022-12-29T03:17:53.678Z,1.57
2022-12-29T03:20:27.511Z,1.60
2022-12-29T03:23:02.383Z,1.45
2022-12-29T03:25:36.360Z,1.80
2022-12-29T03:28:10.312Z,2.17
2022-12-29T03:30:44.023Z,1.47
2022-12-29T03:33:18.261Z,2.50
2022-12-29T03:35:51.701Z,1.20
2022-12-29T03:38:25.799Z,1.30
2022-12-29T03:40:59.986Z,4.83
2022-12-29T03:43:31.059Z,1.00
2022-12-29T03:45:58.806Z,1.50
2022-12-29T03:48:26.510Z,1.20
2022-12-29T03:50:57.552Z,2.00
2022-12-29T03:53:25.174Z,1.30
2022-12-29T03:55:52.932Z,1.23
2022-12-29T03:58:20.521Z,1.30
2022-12-29T04:01:06.111Z,3.03
2022-12-29T04:03:37.474Z,0.90
2022-12-29T04:06:08.514Z,1.40
2022-12-29T04:08:46.617Z,1.70
2022-12-29T04:11:14.290Z,1.73
2022-12-29T04:13:42.530Z,2.10
2022-12-29T04:16:13.215Z,3.17
2022-12-29T04:18:40.948Z,3.27
2022-12-29T04:21:09.933Z,1.97
2022-12-29T04:23:41.077Z,3.87
2022-12-29T04:26:11.014Z,0.90
2022-12-29T04:28:51.799Z,2.23
2022-12-29T04:31:39.241Z,1.17
2022-12-29T04:34:08.076Z,1.00
2022-12-29T04:36:37.212Z,2.73
2022-12-29T04:39:06.108Z,1.67
2022-12-29T04:41:34.731Z,1.50
2022-12-29T04:44:10.172Z,1.60
2022-12-29T04:46:54.241Z,1.07
2022-12-29T04:49:40.371Z,1.20
2022-12-29T04:52:38.874Z,1.10
2022-12-29T04:55:09.245Z,1.13
2022-12-29T04:57:37.092Z,2.37
2022-12-29T05:00:06.230Z,1.20
2022-12-29T05:02:34.163Z,1.20
2022-12-29T05:05:02.015Z,2.90
2022-12-29T05:07:30.541Z,2.13
2022-12-29T05:09:59.848Z,1.00
2022-12-29T05:12:31.074Z,3.80
2022-12-29T05:15:01.687Z,2.20
2022-12-29T05:17:29.417Z,0.90
2022-12-29T05:19:57.436Z,1.50
2022-12-29T05:22:25.938Z,1.20
2022-12-29T05:24:54.148Z,1.13
2022-12-29T05:27:23.560Z,2.00
2022-12-29T05:30:02.267Z,2.23
2022-12-29T05:32:29.985Z,3.00
2022-12-29T05:34:58.512Z,1.80
2022-12-29T05:37:27.498Z,2.90
2022-12-29T05:39:55.614Z,2.17
2022-12-29T05:42:25.318Z,2.33
2022-12-29T05:44:59.956Z,1.67
2022-12-29T05:47:46.418Z,2.03
2022-12-29T05:50:37.043Z,4.83
2022-12-29T05:53:13.195Z,1.70
2022-12-29T05:55:46.820Z,2.07
2022-12-29T05:58:19.510Z,1.60
2022-12-29T06:00:48.764Z,2.43
2022-12-29T06:03:16.714Z,6.10
2022-12-29T06:05:46.601Z,1.43
2022-12-29T06:08:15.994Z,2.90
2022-12-29T06:10:43.713Z,1.80
2022-12-29T06:13:11.541Z,4.00
2022-12-29T06:15:45.044Z,5.40
2022-12-29T06:18:19.671Z,2.23
2022-12-29T06:20:48.554Z,1.80
2022-12-29T06:23:19.507Z,2.77
2022-12-29T06:25:49.328Z,1.80
2022-12-29T06:28:18.092Z,5.83
2022-12-29T06:30:47.743Z,3.43
2022-12-29T06:33:15.649Z,4.13
2022-12-29T06:35:44.234Z,2.17
2022-12-29T06:38:14.733Z,2.43
2022-12-29T06:40:45.788Z,3.53
2022-12-29T06:43:22.528Z,5.20
2022-12-29T06:46:04.840Z,1.87
2022-12-29T06:48:32.645Z,1.70
2022-12-29T06:51:00.328Z,3.90
2022-12-29T06:53:28.072Z,3.00
2022-12-29T06:55:57.481Z,2.90
2022-12-29T06:58:25.189Z,2.50
2022-12-29T07:00:52.938Z,3.03
2022-12-29T07:03:22.138Z,3.00
2022-12-29T07:05:49.857Z,3.33
2022-12-29T07:08:17.544Z,1.53
2022-12-29T07:10:45.184Z,3.77
2022-12-29T07:13:12.864Z,1.10
2022-12-29T07:15:40.483Z,2.73
2022-12-29T07:18:08.150Z,3.07
2022-12-29T07:20:37.237Z,2.10
2022-12-29T07:23:05.032Z,2.27
2022-12-29T07:25:32.749Z,3.07
2022-12-29T07:28:00.486Z,3.70
2022-12-29T07:30:28.515Z,4.20
2022-12-29T07:32:56.566Z,1.50
2022-12-29T07:35:24.361Z,2.27
2022-12-29T07:37:53.419Z,3.37
2022-12-29T07:40:21.047Z,2.70
2022-12-29T07:42:48.778Z,2.97
2022-12-29T07:45:17.949Z,2.37
2022-12-29T07:47:50.283Z,1.67
2022-12-29T07:50:18.174Z,3.70
2022-12-29T07:52:47.872Z,5.00
2022-12-29T07:55:17.418Z,4.77
2022-12-29T07:57:45.199Z,5.70
2022-12-29T08:00:13.930Z,3.40
2022-12-29T08:02:41.700Z,2.50
2022-12-29T08:05:09.997Z,4.63
2022-12-29T08:07:37.703Z,1.50
2022-12-29T08:10:06.454Z,4.40
2022-12-29T08:12:35.496Z,5.87
2022-12-29T08:15:03.196Z,5.90
2022-12-29T08:17:30.865Z,4.13
2022-12-29T08:19:58.589Z,6.50
2022-12-29T08:22:26.410Z,4.00
2022-12-29T08:24:54.281Z,3.13
2022-12-29T08:27:21.973Z,5.63
2022-12-29T08:29:51.090Z,4.40
2022-12-29T08:32:18.996Z,3.30
2022-12-29T08:34:47.852Z,3.53
2022-12-29T08:37:15.506Z,6.10
2022-12-29T08:39:43.198Z,7.10
2022-12-29T08:42:10.873Z,6.00
2022-12-29T08:44:38.630Z,3.07
2022-12-29T08:47:07.828Z,8.20
2022-12-29T08:49:35.604Z,6.30
2022-12-29T08:52:03.334Z,6.83
2022-12-29T08:54:31.020Z,3.83
2022-12-29T08:56:58.757Z,5.90
2022-12-29T08:59:35.302Z,3.20
2022-12-29T09:02:03.939Z,5.13
2022-12-29T09:04:33.465Z,4.97
2022-12-29T09:07:01.301Z,2.47
2022-12-29T09:09:29.046Z,6.07
2022-12-29T09:11:56.694Z,7.90
2022-12-29T09:14:24.403Z,3.85
2022-12-29T09:17:11.237Z,5.63
2022-12-29T09:19:40.428Z,5.30
2022-12-29T09:22:08.203Z,4.57
2022-12-29T09:24:36.954Z,5.50
2022-12-29T09:27:04.785Z,5.60
2022-12-29T09:29:32.630Z,5.30
2022-12-29T09:32:00.277Z,8.20
2022-12-29T09:34:28.048Z,4.50
2022-12-29T09:36:57.403Z,5.33
2022-12-29T09:39:25.208Z,5.30
2022-12-29T09:42:00.943Z,4.00
2022-12-29T09:44:40.103Z,4.27
2022-12-29T09:47:13.073Z,6.20
2022-12-29T09:49:46.911Z,3.87
2022-12-29T09:52:20.143Z,5.00
2022-12-29T09:54:59.815Z,4.93
2022-12-29T09:57:47.329Z,6.30
2022-12-29T10:00:18.950Z,5.13
2022-12-29T10:02:51.642Z,6.07
2022-12-29T10:05:29.004Z,9.80
2022-12-29T10:08:14.016Z,5.13
2022-12-29T10:10:55.965Z,6.60
2022-12-29T10:13:38.740Z,6.07
2022-12-29T10:16:14.272Z,4.30
2022-12-29T10:18:56.523Z,8.77
2022-12-29T10:21:36.135Z,3.63
2022-12-29T10:24:09.451Z,6.33
2022-12-29T10:26:41.218Z,4.17
2022-12-29T10:29:17.721Z,7.20
2022-12-29T10:31:49.668Z,8.67
2022-12-29T10:34:22.852Z,6.10
2022-12-29T10:36:52.986Z,7.87
2022-12-29T10:39:29.550Z,4.40
2022-12-29T10:42:05.997Z,10.90
2022-12-29T10:44:35.693Z,9.80
2022-12-29T10:47:09.126Z,5.40
2022-12-29T10:49:42.395Z,10.67
2022-12-29T10:52:11.556Z,8.57
2022-12-29T10:54:47.228Z,5.90
2022-12-29T10:57:26.845Z,5.60
2022-12-29T10:59:54.602Z,2.43
2022-12-29T11:02:44.293Z,6.70
2022-12-29T11:05:21.737Z,5.90
2022-12-29T11:07:50.318Z,4.97
2022-12-29T11:10:24.142Z,5.47
2022-12-29T11:13:01.650Z,4.03
2022-12-29T11:15:39.751Z,9.65
2022-12-29T11:18:18.824Z,3.40
2022-12-29T11:20:46.494Z,5.90
2022-12-29T11:23:25.453Z,8.50
2022-12-29T11:26:14.729Z,16.13
2022-12-29T11:28:44.050Z,11.07
2022-12-29T11:31:12.402Z,5.32
2022-12-29T11:33:41.810Z,13.83
2022-12-29T11:36:15.776Z,9.17
2022-12-29T11:38:47.749Z,9.10
2022-12-29T11:41:23.028Z,6.27
2022-12-29T11:43:51.425Z,5.70
2022-12-29T11:46:22.265Z,9.00
2022-12-29T11:48:50.211Z,15.40
2022-12-29T11:51:25.585Z,5.57
2022-12-29T11:53:58.001Z,6.95
2022-12-29T11:56:40.707Z,8.43
2022-12-29T11:59:38.862Z,7.83
2022-12-29T12:02:24.464Z,10.17
2022-12-29T12:05:01.938Z,7.63
2022-12-29T12:07:39.992Z,10.57
2022-12-29T12:10:12.866Z,7.82
2022-12-29T12:12:49.090Z,11.23
2022-12-29T12:15:22.677Z,9.47
2022-12-29T12:18:04.728Z,7.13
2022-12-29T12:20:43.635Z,7.07
2022-12-29T12:23:22.163Z,5.00
2022-12-29T12:25:56.657Z,4.70
2022-12-29T12:28:36.954Z,5.37
2022-12-29T12:31:13.463Z,8.40
2022-12-29T12:33:44.953Z,4.60
2022-12-29T12:36:46.691Z,5.60
2022-12-29T12:39:26.681Z,3.47
2022-12-29T12:42:06.455Z,9.53
2022-12-29T12:44:44.603Z,8.80
2022-12-29T12:47:29.843Z,4.10
2022-12-29T12:50:17.408Z,11.43
2022-12-29T12:53:03.093Z,5.77
2022-12-29T12:55:41.390Z,14.07
2022-12-29T12:58:16.518Z,6.00
2022-12-29T13:00:59.382Z,7.30
2022-12-29T13:03:41.845Z,7.70
2022-12-29T13:06:20.349Z,5.53
2022-12-29T13:09:08.845Z,11.17
2022-12-29T13:11:51.942Z,7.73
2022-12-29T13:14:30.758Z,6.60
2022-12-29T13:17:08.200Z,6.97
2022-12-29T13:19:43.004Z,5.57
2022-12-29T13:22:18.563Z,6.90
2022-12-29T13:24:58.109Z,7.33
2022-12-29T13:27:37.569Z,6.80
2022-12-29T13:30:10.477Z,10.30
2022-12-29T13:32:58.474Z,7.57
2022-12-29T13:35:37.849Z,9.80
2022-12-29T13:38:13.924Z,3.80
2022-12-29T13:40:45.572Z,6.72
2022-12-29T13:43:14.472Z,9.67
2022-12-29T13:45:43.915Z,4.43
2022-12-29T13:48:19.308Z,3.30
2022-12-29T13:50:54.287Z,5.97
2022-12-29T13:53:32.058Z,5.75
2022-12-29T13:56:09.200Z,8.80
2022-12-29T13:58:43.590Z,9.70
2022-12-29T14:01:19.358Z,5.47
2022-12-29T14:03:51.447Z,6.65
2022-12-29T14:06:25.010Z,9.60
2022-12-29T14:08:56.186Z,9.97
2022-12-29T14:11:31.625Z,2.40
2022-12-29T14:14:00.393Z,6.70
2022-12-29T14:16:32.200Z,7.20
2022-12-29T14:19:12.560Z,9.77
2022-12-29T14:21:41.734Z,4.90
2022-12-29T14:24:30.098Z,4.13
2022-12-29T14:26:57.790Z,7.90
2022-12-29T14:29:46.479Z,7.20
2022-12-29T14:32:38.875Z,7.80
2022-12-29T14:35:46.890Z,9.73
2022-12-29T14:38:28.419Z,4.30
2022-12-29T14:41:20.856Z,8.83
2022-12-29T14:44:02.071Z,7.03
2022-12-29T14:46:45.266Z,4.80
2022-12-29T14:49:20.038Z,5.90
2022-12-29T14:51:49.730Z,9.53
2022-12-29T14:54:43.768Z,5.37
2022-12-29T14:57:21.000Z,8.93
2022-12-29T14:59:50.494Z,4.43
2022-12-29T15:02:23.374Z,5.10
2022-12-29T15:04:51.133Z,6.67
2022-12-29T15:07:20.887Z,6.43
2022-12-29T15:09:58.695Z,4.70
2022-12-29T15:12:37.826Z,8.55
2022-12-29T15:15:20.231Z,6.00
2022-12-29T15:17:48.246Z,7.25
2022-12-29T15:20:23.384Z,7.13
2022-12-29T15:22:54.125Z,2.93
2022-12-29T15:25:23.695Z,6.63
2022-12-29T15:27:53.424Z,6.50
2022-12-29T15:30:22.436Z,7.93
2022-12-29T15:32:51.402Z,3.63
2022-12-29T15:35:29.666Z,4.90
2022-12-29T15:37:58.364Z,7.30
2022-12-29T15:40:29.460Z,4.70
2022-12-29T15:43:15.684Z,5.07
2022-12-29T15:45:43.632Z,7.53
2022-12-29T15:48:18.085Z,7.07
2022-12-29T15:50:46.837Z,5.15
2022-12-29T15:53:25.472Z,8.90
2022-12-29T15:55:59.789Z,3.95
2022-12-29T15:58:32.837Z,6.00
2022-12-29T16:01:02.852Z,7.50
2022-12-29T16:03:34.706Z,13.85
2022-12-29T16:06:10.339Z,3.90
2022-12-29T16:08:40.772Z,5.47
2022-12-29T16:11:24.015Z,7.90
2022-12-29T16:13:54.189Z,5.97
2022-12-29T16:16:27.314Z,7.07
2022-12-29T16:18:57.923Z,9.77
2022-12-29T16:21:30.252Z,3.92
2022-12-29T16:24:02.573Z,4.82
2022-12-29T16:26:31.639Z,1.83
2022-12-29T16:29:01.493Z,9.13
2022-12-29T16:31:36.388Z,7.23
2022-12-29T16:34:23.431Z,8.07
2022-12-29T16:36:56.989Z,8.27
2022-12-29T16:39:37.475Z,7.67
2022-12-29T16:42:37.997Z,9.32
2022-12-29T16:45:55.450Z,6.30
2022-12-29T16:48:27.034Z,5.70
2022-12-29T16:51:04.902Z,9.57
2022-12-29T16:53:36.076Z,6.05
2022-12-29T16:56:07.919Z,8.60
2022-12-29T16:58:37.352Z,6.65
2022-12-29T17:01:15.434Z,4.07
2022-12-29T17:03:48.252Z,12.10
2022-12-29T17:06:17.326Z,11.27
2022-12-29T17:08:46.538Z,6.07
2022-12-29T17:11:42.302Z,6.07
2022-12-29T17:14:32.375Z,9.50
2022-12-29T17:17:00.943Z,6.50
2022-12-29T17:19:32.788Z,7.28
2022-12-29T17:22:00.866Z,5.63
2022-12-29T17:24:28.889Z,9.20
2022-12-29T17:26:59.576Z,9.60
2022-12-29T17:29:34.121Z,6.30
2022-12-29T17:32:05.046Z,10.55
2022-12-29T17:34:33.318Z,5.78
2022-12-29T17:37:01.004Z,13.38
2022-12-29T17:39:28.897Z,20.00
2022-12-29T17:41:57.016Z,9.35
2022-12-29T17:44:26.483Z,11.50
2022-12-29T17:46:55.499Z,9.35
2022-12-29T17:49:23.250Z,8.02
2022-12-29T17:51:50.932Z,11.20
2022-12-29T17:54:23.573Z,10.70
2022-12-29T17:56:51.504Z,8.10
2022-12-29T17:59:20.258Z,4.97
2022-12-29T18:01:49.769Z,6.30
2022-12-29T18:04:22.262Z,9.20
2022-12-29T18:06:49.913Z,7.53
2022-12-29T18:09:18.308Z,8.52
2022-12-29T18:11:46.575Z,9.77
2022-12-29T18:14:15.158Z,6.75
2022-12-29T18:16:42.941Z,4.70
2022-12-29T18:19:10.966Z,7.35
2022-12-29T18:21:43.010Z,6.30
2022-12-29T18:24:15.104Z,6.68
2022-12-29T18:26:42.989Z,5.55
2022-12-29T18:29:10.616Z,3.60
2022-12-29T18:31:38.369Z,4.38
2022-12-29T18:34:15.434Z,4.47
2022-12-29T18:36:44.652Z,4.93
2022-12-29T18:39:12.501Z,7.75
2022-12-29T18:41:40.240Z,5.68
2022-12-29T18:44:12.812Z,7.55
2022-12-29T18:46:40.997Z,10.77
2022-12-29T18:49:08.821Z,9.07
2022-12-29T18:51:36.456Z,9.85
2022-12-29T18:54:05.504Z,12.18
2022-12-29T18:56:33.151Z,13.55
2022-12-29T18:59:00.901Z,8.18
2022-12-29T19:01:29.213Z,7.85
2022-12-29T19:03:57.038Z,10.73
2022-12-29T19:06:24.802Z,10.73
2022-12-29T19:08:52.476Z,10.93
2022-12-29T19:11:21.471Z,12.13
2022-12-29T19:13:49.159Z,8.50
2022-12-29T19:16:20.544Z,8.07
2022-12-29T19:19:05.893Z,14.50
2022-12-29T19:21:36.551Z,14.10
2022-12-29T19:24:04.605Z,11.98
2022-12-29T19:26:36.806Z,10.32
2022-12-29T19:29:05.413Z,16.45
2022-12-29T19:31:33.280Z,9.75
2022-12-29T19:34:01.805Z,10.25
2022-12-29T19:36:29.739Z,14.60
2022-12-29T19:38:57.900Z,8.13
2022-12-29T19:41:26.064Z,8.95
2022-12-29T19:43:55.526Z,14.75
2022-12-29T19:46:23.301Z,14.80
2022-12-29T19:48:51.473Z,15.00
2022-12-29T19:51:19.962Z,12.15
2022-12-29T19:53:48.126Z,13.95
2022-12-29T19:56:15.917Z,19.63
2022-12-29T19:58:47.593Z,10.13
2022-12-29T20:01:18.698Z,15.45
2022-12-29T20:03:46.506Z,7.88
2022-12-29T20:06:15.156Z,13.70
2022-12-29T20:08:43.141Z,10.70
2022-12-29T20:11:13.137Z,10.52
2022-12-29T20:13:41.463Z,12.60
2022-12-29T20:16:12.419Z,10.18
2022-12-29T20:18:41.683Z,15.00
2022-12-29T20:21:12.836Z,7.93
2022-12-29T20:23:41.356Z,10.05
2022-12-29T20:26:09.850Z,9.63
2022-12-29T20:28:37.500Z,16.65
2022-12-29T20:31:08.629Z,17.95
2022-12-29T20:33:37.139Z,14.98
2022-12-29T20:36:09.039Z,15.30
2022-12-29T20:38:37.235Z,10.55
2022-12-29T20:41:06.167Z,11.50
2022-12-29T20:43:34.016Z,6.45
2022-12-29T20:46:01.703Z,6.63
2022-12-29T20:48:30.975Z,9.52
2022-12-29T20:51:00.424Z,10.85
2022-12-29T20:53:30.380Z,12.30
2022-12-29T20:56:02.901Z,8.93
2022-12-29T20:58:31.147Z,7.57
2022-12-29T21:01:03.331Z,11.68
2022-12-29T21:03:31.219Z,16.73
2022-12-29T21:06:00.021Z,7.55
2022-12-29T21:08:30.846Z,13.32
2022-12-29T21:10:59.177Z,8.40
2022-12-29T21:13:27.411Z,12.80
2022-12-29T21:15:57.645Z,12.40
2022-12-29T21:18:25.469Z,9.60
2022-12-29T21:20:57.619Z,13.32
2022-12-29T21:23:25.889Z,12.32
2022-12-29T21:25:55.612Z,14.05
2022-12-29T21:28:24.858Z,9.23
2022-12-29T21:30:52.945Z,10.77
2022-12-29T21:33:22.518Z,12.82
2022-12-29T21:35:50.243Z,12.23
2022-12-29T21:38:17.878Z,11.82
2022-12-29T21:40:45.528Z,14.20
2022-12-29T21:43:14.660Z,11.25
2022-12-29T21:45:41.376Z,6.85
2022-12-29T21:48:24.924Z,12.00
2022-12-29T21:51:12.469Z,13.38
2022-12-29T21:53:41.838Z,12.85
2022-12-29T21:56:11.890Z,10.73
2022-12-29T21:59:00.719Z,8.85
2022-12-29T22:01:47.995Z,15.07
2022-12-29T22:04:34.266Z,12.00
2022-12-29T22:07:19.786Z,10.95
2022-12-29T22:10:05.529Z,12.82
2022-12-29T22:12:51.242Z,13.25
2022-12-29T22:15:20.306Z,11.43
2022-12-29T22:17:49.435Z,14.90
2022-12-29T22:20:17.556Z,10.43
2022-12-29T22:22:45.287Z,20.38
2022-12-29T22:25:13.325Z,10.10
2022-12-29T22:27:41.553Z,13.43
2022-12-29T22:30:10.234Z,11.57
2022-12-29T22:32:39.310Z,13.32
2022-12-29T22:35:08.588Z,18.10
2022-12-29T22:37:37.652Z,11.52
2022-12-29T22:40:06.448Z,12.50
2022-12-29T22:42:34.462Z,12.45
2022-12-29T22:45:02.238Z,12.73
2022-12-29T22:47:29.914Z,10.43
2022-12-29T22:49:58.924Z,12.82
2022-12-29T22:52:26.606Z,8.05
2022-12-29T22:54:54.236Z,10.18
2022-12-29T22:57:21.907Z,16.33
2022-12-29T22:59:49.539Z,17.67
2022-12-29T23:02:17.398Z,17.02
2022-12-29T23:05:03.007Z,13.35
2022-12-29T23:07:33.048Z,12.98
2022-12-29T23:10:00.970Z,14.65
2022-12-29T23:12:30.778Z,17.98
2022-12-29T23:14:58.602Z,15.82
2022-12-29T23:17:26.480Z,15.25
2022-12-29T23:19:54.287Z,11.05
2022-12-29T23:22:22.931Z,9.50
2022-12-29T23:24:51.952Z,13.60
2022-12-29T23:27:19.578Z,14.13
2022-12-29T23:29:47.233Z,8.77
2022-12-29T23:32:14.850Z,9.93
2022-12-29T23:34:42.489Z,18.85
2022-12-29T23:37:10.163Z,15.13
2022-12-29T23:39:37.878Z,13.25
2022-12-29T23:42:07.017Z,12.95
2022-12-29T23:44:35.199Z,13.15
2022-12-29T23:47:02.922Z,24.98
2022-12-29T23:49:30.600Z,14.38
2022-12-29T23:51:58.217Z,18.35
2022-12-29T23:54:26.356Z,13.27
2022-12-29T23:56:53.995Z,12.95
2022-12-29T23:59:23.033Z,8.75
